Time;durP1;ratioP1;P1;durP2;ratioP2;P2;SDS_P1;SDS_P2;PMS_P1;PMS_P2;Temp;Humidity;BMP_temperature;BMP_pressure;BME280_temperature;BME280_humidity;BME280_pressure;Samples;Min_cycle;Max_cycle;Signal;HPM_P1;HPM_P2
2021/01/20 00:01:23;;;;;;;7.83;5.83;;;9.30;1.00;;;;;;5075603;28;20202;-65
2021/01/20 00:03:48;;;;;;;8.37;6.57;;;9.30;1.00;;;;;;5075041;28;20287;-65
2021/01/20 00:06:14;;;;;;;9.47;6.77;;;9.20;1.00;;;;;;5074530;28;20223;-65
2021/01/20 00:08:43;;;;;;;9.17;6.67;;;9.20;1.00;;;;;;5075407;28;20181;-65
2021/01/20 00:11:09;;;;;;;9.70;7.50;;;9.30;1.00;;;;;;5075421;28;20660;-66
2021/01/20 00:13:34;;;;;;;10.37;7.33;;;9.30;1.00;;;;;;5075008;28;20186;-66
2021/01/20 00:16:00;;;;;;;8.80;6.33;;;9.40;1.00;;;;;;5091151;28;20572;-67
2021/01/20 00:18:25;;;;;;;8.00;6.10;;;9.30;1.00;;;;;;5074181;28;20689;-67
2021/01/20 00:20:51;;;;;;;9.50;6.87;;;9.10;1.00;;;;;;5075216;28;20187;-66
2021/01/20 00:23:17;;;;;;;8.47;7.13;;;9.10;1.00;;;;;;5074905;28;20190;-65
2021/01/20 00:25:42;;;;;;;9.80;6.50;;;9.10;1.00;;;;;;5074978;28;20263;-65
2021/01/20 00:28:08;;;;;;;8.80;7.20;;;9.00;1.00;;;;;;5074977;28;20538;-66
2021/01/20 00:30:34;;;;;;;8.90;7.30;;;8.90;1.00;;;;;;5074861;28;20603;-66
2021/01/20 00:32:59;;;;;;;10.30;8.07;;;9.00;1.00;;;;;;5074723;28;20442;-66
2021/01/20 00:35:25;;;;;;;9.50;6.70;;;9.00;1.00;;;;;;5074393;28;20268;-65
2021/01/20 00:37:50;;;;;;;9.37;7.63;;;9.10;1.00;;;;;;5074751;28;20184;-65
2021/01/20 00:40:17;;;;;;;7.57;5.50;;;9.00;1.00;;;;;;5074579;28;20237;-64
2021/01/20 00:42:43;;;;;;;10.40;7.80;;;8.90;1.00;;;;;;5074583;28;20182;-64
2021/01/20 00:45:09;;;;;;;9.03;6.87;;;8.80;1.00;;;;;;5073257;28;20195;-66
2021/01/20 00:47:35;;;;;;;8.52;6.65;;;8.80;1.00;;;;;;5074780;28;20423;-65
2021/01/20 00:50:00;;;;;;;10.57;8.30;;;8.70;1.00;;;;;;5074428;28;20644;-63
2021/01/20 00:52:26;;;;;;;9.80;7.33;;;8.60;2.50;;;;;;5074487;28;20177;-63
2021/01/20 00:54:51;;;;;;;12.97;7.90;;;8.60;16.40;;;;;;5074133;28;20191;-65
2021/01/20 00:57:17;;;;;;;12.70;8.60;;;8.60;27.00;;;;;;5074250;28;20187;-66
2021/01/20 00:59:42;;;;;;;13.40;9.27;;;8.50;11.30;;;;;;5074173;28;20173;-63
2021/01/20 01:02:08;;;;;;;12.90;8.80;;;8.40;12.20;;;;;;5074161;28;20236;-64
2021/01/20 01:04:33;;;;;;;17.33;10.20;;;8.30;4.60;;;;;;5074067;28;20193;-64
2021/01/20 01:06:59;;;;;;;12.23;8.70;;;8.30;16.50;;;;;;5074225;28;20234;-64
2021/01/20 01:09:24;;;;;;;14.70;10.03;;;8.20;3.30;;;;;;5074134;28;20176;-64
2021/01/20 01:11:50;;;;;;;14.57;10.37;;;8.30;7.50;;;;;;5074084;28;20204;-64
2021/01/20 01:14:16;;;;;;;16.03;11.03;;;8.20;5.10;;;;;;5073833;28;20180;-64
2021/01/20 01:16:41;;;;;;;15.80;10.67;;;8.30;1.30;;;;;;5073340;28;20178;-64
2021/01/20 01:19:07;;;;;;;13.20;10.53;;;8.30;1.00;;;;;;5073863;28;20180;-64
2021/01/20 01:21:34;;;;;;;13.50;10.17;;;8.40;1.00;;;;;;5073900;28;20189;-64
2021/01/20 01:23:59;;;;;;;13.38;9.70;;;8.50;1.00;;;;;;5073553;28;20453;-64
2021/01/20 01:26:25;;;;;;;14.60;10.90;;;8.50;1.00;;;;;;5073796;28;20176;-64
2021/01/20 01:28:51;;;;;;;14.90;10.87;;;8.50;1.00;;;;;;5073802;28;20192;-64
2021/01/20 01:31:17;;;;;;;14.57;10.17;;;8.50;1.00;;;;;;5073835;28;20209;-64
2021/01/20 01:33:43;;;;;;;15.27;11.15;;;8.40;1.00;;;;;;5073537;28;20307;-64
2021/01/20 01:36:09;;;;;;;13.83;11.13;;;8.40;1.00;;;;;;5073863;28;20223;-64
2021/01/20 01:38:34;;;;;;;15.97;12.20;;;8.30;1.00;;;;;;5073767;28;20169;-65
2021/01/20 01:41:00;;;;;;;17.83;12.30;;;8.40;1.00;;;;;;5073804;28;20433;-64
2021/01/20 01:43:25;;;;;;;15.50;11.30;;;8.30;1.00;;;;;;5073605;28;20187;-64
2021/01/20 01:45:51;;;;;;;16.53;12.00;;;8.20;1.00;;;;;;5073545;28;20184;-65
2021/01/20 01:48:17;;;;;;;15.00;11.73;;;8.20;1.00;;;;;;5073755;28;20273;-64
2021/01/20 01:50:42;;;;;;;17.73;13.00;;;8.20;1.00;;;;;;5072564;28;20217;-64
2021/01/20 01:53:12;;;;;;;16.80;13.20;;;8.20;1.00;;;;;;5073438;28;20168;-63
2021/01/20 01:55:37;;;;;;;17.65;13.55;;;8.30;1.00;;;;;;5073510;28;20506;-63
2021/01/20 01:58:03;;;;;;;17.23;14.03;;;8.20;1.00;;;;;;5072685;28;20231;-63
2021/01/20 02:00:29;;;;;;;18.57;13.77;;;8.30;1.00;;;;;;5073606;28;20510;-63
2021/01/20 02:02:55;;;;;;;20.45;14.63;;;8.10;1.00;;;;;;5072390;28;20180;-63
2021/01/20 02:05:21;;;;;;;19.25;14.40;;;7.90;1.00;;;;;;5073310;28;20589;-64
2021/01/20 02:07:47;;;;;;;16.50;13.60;;;7.90;1.00;;;;;;5073427;28;20193;-63
2021/01/20 02:10:13;;;;;;;15.95;14.15;;;8.00;1.00;;;;;;5073674;28;20208;-63
2021/01/20 02:12:44;;;;;;;17.42;14.05;;;8.00;1.00;;;;;;5073550;28;20555;-63
2021/01/20 02:15:41;;;;;;;19.85;12.85;;;8.00;1.00;;;;;;5073197;28;20755;-63
2021/01/20 02:18:12;;;;;;;17.15;14.95;;;7.80;1.00;;;;;;5072859;28;20194;-66
2021/01/20 02:20:48;;;;;;;18.13;13.15;;;7.90;1.00;;;;;;5073260;28;20173;-65
2021/01/20 02:23:17;;;;;;;20.90;15.02;;;8.00;1.00;;;;;;5073114;28;20187;-65
2021/01/20 02:26:20;;;;;;;17.65;12.80;;;7.90;1.00;;;;;;5073282;28;20177;-65
2021/01/20 02:29:23;;;;;;;17.25;12.50;;;7.90;1.00;;;;;;5076366;28;20616;-65
2021/01/20 02:31:49;;;;;;;20.13;14.27;;;7.80;1.00;;;;;;5077167;28;20215;-64
2021/01/20 02:34:20;;;;;;;17.77;13.63;;;7.80;1.00;;;;;;5077018;28;20552;-63
2021/01/20 02:36:46;;;;;;;16.23;12.05;;;7.80;1.00;;;;;;5077176;28;20271;-63
2021/01/20 02:39:13;;;;;;;20.30;13.55;;;7.80;1.00;;;;;;5076945;28;20369;-63
2021/01/20 02:41:38;;;;;;;15.63;13.57;;;7.80;1.00;;;;;;5077198;28;20203;-64
2021/01/20 02:44:05;;;;;;;19.00;12.97;;;7.80;1.00;;;;;;5076771;28;20803;-64
2021/01/20 02:46:31;;;;;;;15.90;11.50;;;7.70;1.00;;;;;;5076992;28;20226;-64
2021/01/20 02:48:59;;;;;;;14.77;11.75;;;7.70;1.00;;;;;;5076825;28;20189;-64
2021/01/20 02:51:48;;;;;;;18.58;12.43;;;7.70;1.00;;;;;;5076679;28;20665;-64
2021/01/20 02:54:16;;;;;;;20.75;12.85;;;7.60;1.00;;;;;;5076533;28;20173;-64
2021/01/20 02:56:46;;;;;;;16.58;11.82;;;7.60;1.00;;;;;;5076632;28;20279;-64
2021/01/20 02:59:14;;;;;;;14.55;10.45;;;7.70;1.00;;;;;;5076827;28;20374;-64
2021/01/20 03:01:44;;;;;;;18.40;12.75;;;7.60;1.00;;;;;;5076571;28;20188;-64
2021/01/20 03:04:10;;;;;;;16.65;11.70;;;7.50;1.00;;;;;;5075536;28;20207;-64
2021/01/20 03:06:37;;;;;;;18.20;11.00;;;7.60;1.00;;;;;;5076470;28;20633;-63
2021/01/20 03:09:03;;;;;;;17.08;11.43;;;7.70;1.00;;;;;;5076395;28;20195;-63
2021/01/20 03:11:28;;;;;;;18.02;10.57;;;7.60;1.00;;;;;;5076432;28;20676;-63
2021/01/20 03:13:55;;;;;;;16.13;10.60;;;7.60;1.00;;;;;;5076040;28;20216;-63
2021/01/20 03:16:26;;;;;;;15.25;10.43;;;7.60;1.00;;;;;;5076328;28;20264;-63
2021/01/20 03:18:52;;;;;;;13.90;10.00;;;7.60;1.00;;;;;;5076267;28;20172;-63
2021/01/20 03:21:19;;;;;;;17.57;10.60;;;7.60;1.00;;;;;;5076257;28;20184;-63
2021/01/20 03:23:44;;;;;;;14.35;10.10;;;7.70;1.00;;;;;;5076111;28;20226;-63
2021/01/20 03:26:10;;;;;;;13.10;9.70;;;7.70;1.00;;;;;;5076240;28;20626;-63
2021/01/20 03:28:36;;;;;;;16.67;11.90;;;7.70;1.00;;;;;;5076050;28;20618;-63
2021/01/20 03:31:02;;;;;;;21.03;11.77;;;7.70;1.00;;;;;;5075942;28;20463;-63
2021/01/20 03:33:27;;;;;;;15.20;9.93;;;7.70;1.00;;;;;;5075647;28;20175;-63
2021/01/20 03:35:53;;;;;;;17.43;10.93;;;7.80;1.00;;;;;;5075993;28;20189;-63
2021/01/20 03:38:18;;;;;;;17.00;10.40;;;8.00;1.00;;;;;;5075712;28;20180;-63
2021/01/20 03:40:44;;;;;;;12.33;9.50;;;7.80;1.00;;;;;;5075947;28;20708;-65
2021/01/20 03:43:09;;;;;;;13.63;10.47;;;7.70;1.00;;;;;;5075743;28;20645;-66
2021/01/20 03:45:35;;;;;;;13.77;10.83;;;7.60;1.00;;;;;;5075824;28;20264;-64
2021/01/20 03:48:00;;;;;;;15.83;10.10;;;7.60;1.00;;;;;;5075604;28;20489;-64
2021/01/20 03:50:26;;;;;;;12.80;9.87;;;7.60;1.00;;;;;;5075652;28;20303;-64
2021/01/20 03:52:52;;;;;;;13.73;10.53;;;7.60;1.00;;;;;;5075697;28;20176;-64
2021/01/20 03:55:17;;;;;;;17.33;9.40;;;7.50;1.00;;;;;;5075501;28;20181;-64
2021/01/20 03:57:43;;;;;;;14.00;10.67;;;7.50;1.00;;;;;;5075680;28;20172;-64
2021/01/20 04:00:09;;;;;;;13.10;8.87;;;7.50;1.00;;;;;;5075586;28;20200;-64
2021/01/20 04:02:35;;;;;;;13.68;10.88;;;7.60;1.00;;;;;;5075800;28;20516;-64
2021/01/20 04:05:00;;;;;;;16.43;11.90;;;7.50;1.00;;;;;;5075378;28;20187;-64
2021/01/20 04:07:26;;;;;;;14.97;11.30;;;7.60;1.00;;;;;;5075552;28;20176;-64
2021/01/20 04:09:51;;;;;;;15.03;10.33;;;7.50;1.00;;;;;;5075511;28;20686;-64
2021/01/20 04:12:17;;;;;;;16.10;10.30;;;7.40;1.00;;;;;;5075312;28;20215;-64
2021/01/20 04:14:42;;;;;;;12.10;10.30;;;7.30;1.00;;;;;;5075088;28;20177;-64
2021/01/20 04:17:08;;;;;;;16.83;11.10;;;7.20;1.00;;;;;;5075009;28;20252;-64
2021/01/20 04:19:33;;;;;;;15.00;10.60;;;7.30;1.00;;;;;;5075067;28;20256;-64
2021/01/20 04:21:59;;;;;;;15.10;11.30;;;7.40;1.00;;;;;;5075094;28;20601;-64
2021/01/20 04:24:24;;;;;;;21.33;10.57;;;7.40;1.00;;;;;;5074782;28;20613;-64
2021/01/20 04:26:50;;;;;;;16.60;10.80;;;7.40;1.00;;;;;;5075136;28;20514;-64
2021/01/20 04:29:16;;;;;;;13.63;11.20;;;7.30;1.00;;;;;;5074879;28;20551;-64
2021/01/20 04:31:42;;;;;;;15.80;11.10;;;7.40;1.00;;;;;;5074766;28;20297;-64
2021/01/20 04:34:08;;;;;;;14.10;10.37;;;7.30;1.00;;;;;;5074502;28;20264;-64
2021/01/20 04:36:34;;;;;;;13.45;10.70;;;7.40;1.00;;;;;;5074723;28;20223;-64
2021/01/20 04:38:59;;;;;;;17.63;11.00;;;7.30;1.00;;;;;;5074756;28;20618;-64
2021/01/20 04:41:26;;;;;;;16.27;11.23;;;7.30;1.00;;;;;;5074613;28;20430;-64
2021/01/20 04:43:52;;;;;;;16.25;11.45;;;7.20;1.00;;;;;;5073421;28;20222;-64
2021/01/20 04:46:18;;;;;;;13.33;9.10;;;7.20;1.00;;;;;;5074507;28;20169;-64
2021/01/20 04:48:47;;;;;;;14.45;10.10;;;7.30;1.00;;;;;;5074483;28;20516;-64
2021/01/20 04:51:17;;;;;;;12.23;9.38;;;7.30;1.00;;;;;;5072333;28;20644;-64
2021/01/20 04:53:43;;;;;;;13.05;10.05;;;7.30;1.00;;;;;;5073309;28;20184;-65
2021/01/20 04:56:12;;;;;;;11.80;9.63;;;7.30;1.00;;;;;;5074263;28;20188;-66
2021/01/20 04:58:37;;;;;;;10.80;8.82;;;7.30;1.00;;;;;;5074195;28;20606;-66
2021/01/20 05:01:03;;;;;;;14.63;9.30;;;7.30;1.00;;;;;;5074047;28;20204;-65
2021/01/20 05:03:29;;;;;;;10.02;8.30;;;7.30;1.00;;;;;;5073022;28;20192;-66
2021/01/20 05:05:55;;;;;;;10.77;8.33;;;7.30;1.00;;;;;;5073289;28;20182;-64
2021/01/20 05:08:22;;;;;;;13.40;9.00;;;7.30;1.00;;;;;;5074180;28;20481;-63
2021/01/20 05:10:49;;;;;;;12.63;9.70;;;7.30;1.00;;;;;;5074144;28;20254;-66
2021/01/20 05:13:29;;;;;;;11.13;8.65;;;7.30;1.00;;;;;;5074094;28;20168;-66
2021/01/20 05:15:56;;;;;;;12.73;8.18;;;7.30;1.00;;;;;;5074058;28;20187;-66
2021/01/20 05:18:22;;;;;;;14.23;7.95;;;7.40;1.00;;;;;;5074018;28;20260;-66
2021/01/20 05:20:48;;;;;;;9.68;8.13;;;7.30;1.00;;;;;;5073860;28;20487;-66
2021/01/20 05:23:14;;;;;;;8.77;7.50;;;7.20;1.00;;;;;;5073504;28;20189;-65
2021/01/20 05:25:42;;;;;;;10.20;7.20;;;7.20;1.00;;;;;;5073792;28;20242;-66
2021/01/20 05:28:22;;;;;;;9.40;7.53;;;7.10;1.00;;;;;;5073883;28;20632;-66
2021/01/20 05:30:51;;;;;;;9.05;7.47;;;7.20;1.00;;;;;;5073654;28;20676;-66
2021/01/20 05:33:19;;;;;;;9.48;7.18;;;7.20;1.00;;;;;;5073612;28;20184;-71
2021/01/20 05:36:02;;;;;;;12.90;8.40;;;7.20;1.00;;;;;;5073793;28;20219;-66
2021/01/20 05:38:34;;;;;;;8.60;6.38;;;7.20;1.00;;;;;;5072694;28;20191;-66
2021/01/20 05:41:24;;;;;;;9.77;6.88;;;7.10;1.00;;;;;;5073648;28;20230;-66
2021/01/20 05:44:11;;;;;;;11.98;7.20;;;7.20;1.00;;;;;;5073329;28;20176;-66
2021/01/20 05:46:40;;;;;;;7.30;6.55;;;7.20;1.00;;;;;;5073673;28;20263;-65
2021/01/20 05:49:07;;;;;;;8.15;6.65;;;7.10;1.00;;;;;;5073494;28;20176;-66
2021/01/20 05:51:43;;;;;;;12.00;7.13;;;7.20;1.00;;;;;;5072551;28;20215;-66
2021/01/20 05:54:10;;;;;;;8.95;6.03;;;7.20;1.00;;;;;;5055879;28;20230;-66
2021/01/20 05:56:36;;;;;;;7.85;5.97;;;7.20;1.00;;;;;;5073497;28;20173;-66
2021/01/20 05:59:11;;;;;;;8.00;6.63;;;7.20;1.00;;;;;;5073406;28;20188;-67
2021/01/20 06:01:38;;;;;;;6.72;5.22;;;7.10;1.00;;;;;;5073148;28;20207;-66
2021/01/20 06:04:06;;;;;;;10.65;6.65;;;7.10;1.00;;;;;;5073267;28;20194;-67
2021/01/20 06:06:33;;;;;;;12.98;6.95;;;7.10;1.00;;;;;;5072553;28;20208;-66
2021/01/20 06:09:00;;;;;;;11.45;7.38;;;7.10;1.00;;;;;;5073324;28;20185;-66
2021/01/20 06:11:26;;;;;;;9.80;6.78;;;7.10;1.00;;;;;;5073428;28;20511;-64
2021/01/20 06:13:52;;;;;;;10.70;5.17;;;7.00;1.00;;;;;;5073053;28;20210;-64
2021/01/20 06:16:22;;;;;;;15.25;8.27;;;7.00;1.00;;;;;;5073403;28;20173;-63
2021/01/20 06:18:54;;;;;;;13.00;6.57;;;7.10;1.00;;;;;;5073470;28;20169;-64
2021/01/20 06:21:20;;;;;;;10.27;5.55;;;7.20;1.00;;;;;;5073228;28;20344;-64
2021/01/20 06:23:56;;;;;;;8.75;6.07;;;7.10;1.00;;;;;;5073008;28;20208;-64
2021/01/20 06:26:25;;;;;;;7.80;6.55;;;7.00;1.00;;;;;;5073143;28;20187;-64
2021/01/20 06:28:58;;;;;;;6.53;5.30;;;7.00;1.00;;;;;;5072969;28;20181;-65
2021/01/20 06:31:27;;;;;;;12.48;6.65;;;7.10;1.00;;;;;;5072948;28;20640;-64
2021/01/20 06:33:53;;;;;;;7.30;5.70;;;7.20;1.00;;;;;;5072793;28;20192;-65
2021/01/20 06:36:35;;;;;;;6.87;5.70;;;7.20;1.00;;;;;;5072916;28;20177;-64
2021/01/20 06:39:21;;;;;;;7.65;5.38;;;7.10;1.00;;;;;;5073103;28;20512;-65
2021/01/20 06:41:46;;;;;;;6.00;5.40;;;7.00;1.00;;;;;;5072821;28;20189;-64
2021/01/20 06:44:14;;;;;;;6.40;5.77;;;7.00;1.00;;;;;;5072827;28;20192;-64
2021/01/20 06:46:57;;;;;;;10.07;6.05;;;7.00;1.00;;;;;;5072918;28;20177;-64
2021/01/20 06:49:31;;;;;;;9.25;6.18;;;6.90;1.00;;;;;;5072953;28;20188;-65
2021/01/20 06:52:07;;;;;;;10.55;6.80;;;7.00;1.00;;;;;;5072699;28;20239;-64
2021/01/20 06:54:37;;;;;;;10.57;5.60;;;7.20;1.00;;;;;;5072643;28;20203;-65
2021/01/20 06:57:25;;;;;;;15.20;6.15;;;7.20;1.00;;;;;;5072723;28;20173;-66
2021/01/20 07:00:17;;;;;;;11.38;6.78;;;7.20;1.00;;;;;;5072953;28;20177;-66
2021/01/20 07:03:03;;;;;;;8.88;6.47;;;7.20;1.00;;;;;;5072037;28;20776;-64
2021/01/20 07:05:40;;;;;;;12.10;6.00;;;7.30;1.00;;;;;;5072632;28;20545;-64
2021/01/20 07:08:09;;;;;;;8.88;5.68;;;7.20;1.00;;;;;;5072934;28;20259;-64
2021/01/20 07:11:01;;;;;;;8.35;4.90;;;7.20;1.00;;;;;;5072704;28;20254;-65
2021/01/20 07:13:36;;;;;;;7.60;5.47;;;7.20;1.00;;;;;;5073424;28;20188;-64
2021/01/20 07:16:06;;;;;;;8.15;5.65;;;7.10;1.00;;;;;;5076361;28;20620;-64
2021/01/20 07:18:31;;;;;;;13.88;6.07;;;7.00;1.00;;;;;;5076431;28;20204;-64
2021/01/20 07:20:57;;;;;;;7.67;5.63;;;7.00;1.00;;;;;;5075428;28;20515;-64
2021/01/20 07:23:23;;;;;;;8.80;5.60;;;7.10;1.00;;;;;;5076016;28;20213;-64
2021/01/20 07:25:50;;;;;;;8.93;5.20;;;7.20;1.00;;;;;;5076284;28;20572;-64
2021/01/20 07:28:16;;;;;;;8.75;4.97;;;7.10;1.00;;;;;;5076255;28;20181;-64
2021/01/20 07:30:42;;;;;;;7.45;5.15;;;7.00;1.00;;;;;;5076424;28;20277;-64
2021/01/20 07:33:18;;;;;;;8.10;5.53;;;7.10;1.00;;;;;;5074478;28;20212;-64
2021/01/20 07:35:44;;;;;;;6.80;5.60;;;7.10;1.00;;;;;;5075206;28;20183;-65
2021/01/20 07:38:10;;;;;;;5.93;4.88;;;7.10;1.00;;;;;;5076109;28;20501;-67
2021/01/20 07:40:41;;;;;;;12.40;6.30;;;7.10;1.00;;;;;;5076023;28;20184;-66
2021/01/20 07:43:07;;;;;;;7.88;5.20;;;7.00;1.00;;;;;;5075565;28;20249;-62
2021/01/20 07:45:34;;;;;;;6.13;5.23;;;7.10;1.00;;;;;;5075860;28;20567;-64
2021/01/20 07:48:01;;;;;;;5.97;5.13;;;7.20;1.00;;;;;;5075758;28;20176;-63
2021/01/20 07:50:37;;;;;;;5.90;4.53;;;7.30;1.00;;;;;;5074403;28;20208;-64
2021/01/20 07:53:04;;;;;;;7.20;4.85;;;7.40;1.00;;;;;;5075851;28;20249;-63
2021/01/20 07:55:30;;;;;;;7.40;5.45;;;7.40;1.00;;;;;;5074609;28;20206;-64
2021/01/20 07:57:57;;;;;;;9.33;4.97;;;7.50;1.00;;;;;;5075974;28;20270;-67
2021/01/20 08:00:23;;;;;;;5.55;4.63;;;7.50;1.00;;;;;;5075392;28;20438;-66
2021/01/20 08:02:49;;;;;;;7.63;5.30;;;7.50;1.00;;;;;;5075580;28;20180;-67
2021/01/20 08:05:14;;;;;;;5.63;4.30;;;7.50;1.00;;;;;;5075699;28;20182;-67
2021/01/20 08:07:40;;;;;;;7.53;5.50;;;7.60;1.00;;;;;;5070019;28;20881;-67
2021/01/20 08:10:17;;;;;;;6.30;3.70;;;7.80;99.90;;;;;;5055424;28;20192;-67
2021/01/20 08:12:43;;;;;;;5.38;4.22;;;8.00;99.90;;;;;;5055861;28;20188;-67
2021/01/20 08:15:10;;;;;;;7.57;4.85;;;8.30;99.90;;;;;;5055337;28;20181;-65
2021/01/20 08:17:36;;;;;;;7.60;4.43;;;8.20;99.90;;;;;;5055701;28;20493;-65
2021/01/20 08:20:03;;;;;;;4.95;4.03;;;8.40;99.90;;;;;;5055301;28;20246;-64
2021/01/20 08:22:29;;;;;;;5.85;4.13;;;8.40;99.90;;;;;;5074896;28;20188;-69
2021/01/20 08:24:55;;;;;;;5.30;4.30;;;8.40;1.00;;;;;;5075112;28;20215;-66
2021/01/20 08:27:26;;;;;;;5.63;4.82;;;8.40;1.00;;;;;;5075380;28;20177;-66
2021/01/20 08:29:54;;;;;;;11.00;6.65;;;8.40;1.00;;;;;;5073124;28;20188;-66
2021/01/20 08:32:20;;;;;;;5.43;3.60;;;8.50;1.00;;;;;;5073787;28;20212;-68
2021/01/20 08:34:50;;;;;;;4.60;3.25;;;8.50;99.90;;;;;;5074546;28;20177;-66
2021/01/20 08:37:18;;;;;;;4.78;3.80;;;8.50;4.60;;;;;;5074519;28;20181;-69
2021/01/20 08:39:57;;;;;;;4.55;3.50;;;8.50;99.90;;;;;;5074828;28;20610;-64
2021/01/20 08:42:35;;;;;;;4.72;2.88;;;8.50;99.90;;;;;;5075063;28;20189;-68
2021/01/20 08:45:13;;;;;;;4.82;3.85;;;8.50;99.90;;;;;;5073746;28;20188;-68
2021/01/20 08:47:59;;;;;;;7.35;4.63;;;8.60;99.90;;;;;;5072590;28;20188;-66
2021/01/20 08:50:28;;;;;;;4.25;3.85;;;8.60;56.70;;;;;;5059224;28;20186;-67
2021/01/20 08:52:58;;;;;;;7.20;3.78;;;8.70;1.00;;;;;;5074621;28;20177;-68
2021/01/20 08:55:49;;;;;;;6.05;3.60;;;8.90;1.00;;;;;;5074343;28;20211;-69
2021/01/20 08:58:30;;;;;;;5.68;3.58;;;8.80;1.00;;;;;;5073215;28;20185;-63
2021/01/20 09:01:11;;;;;;;5.05;3.47;;;8.70;1.00;;;;;;5075010;28;20196;-67
2021/01/20 09:03:39;;;;;;;4.15;3.10;;;8.70;1.00;;;;;;5075411;28;20204;-68
2021/01/20 09:06:15;;;;;;;7.20;3.03;;;8.80;1.00;;;;;;5075005;28;20566;-65
2021/01/20 09:08:41;;;;;;;3.47;2.95;;;8.90;1.00;;;;;;5074685;28;20181;-67
2021/01/20 09:11:07;;;;;;;5.00;3.47;;;8.80;1.00;;;;;;5074803;28;20208;-66
2021/01/20 09:13:33;;;;;;;3.07;2.77;;;8.90;99.90;;;;;;5074142;28;20850;-67
2021/01/20 09:15:59;;;;;;;11.18;4.88;;;8.90;1.00;;;;;;5073997;28;20916;-63
2021/01/20 09:18:25;;;;;;;4.80;3.70;;;8.90;1.00;;;;;;5074252;28;20177;-64
2021/01/20 09:20:52;;;;;;;3.90;3.50;;;8.90;1.00;;;;;;5074166;28;20205;-65
2021/01/20 09:23:18;;;;;;;7.60;3.03;;;9.10;99.90;;;;;;5073706;28;20187;-63
2021/01/20 09:25:45;;;;;;;3.85;3.17;;;9.10;69.00;;;;;;5074288;28;20480;-66
2021/01/20 09:28:11;;;;;;;3.65;2.88;;;9.20;1.00;;;;;;5074259;28;20176;-63
2021/01/20 09:30:36;;;;;;;5.27;3.23;;;9.10;99.90;;;;;;5074062;28;20218;-67
2021/01/20 09:33:03;;;;;;;8.90;5.40;;;9.20;99.90;;;;;;5075867;28;20176;-67
2021/01/20 09:35:29;;;;;;;5.88;3.35;;;9.20;99.90;;;;;;5074839;28;20208;-62
2021/01/20 09:37:54;;;;;;;6.77;3.63;;;9.20;1.00;;;;;;5074092;28;20460;-66
2021/01/20 09:40:22;;;;;;;5.00;2.63;;;9.20;10.80;;;;;;5074499;28;20184;-67
2021/01/20 09:42:49;;;;;;;4.30;2.90;;;9.30;1.00;;;;;;5073880;28;20177;-64
2021/01/20 09:45:18;;;;;;;6.60;4.00;;;9.50;99.90;;;;;;5073309;28;20193;-63
2021/01/20 09:47:45;;;;;;;3.53;2.72;;;9.60;56.60;;;;;;5072989;28;20516;-66
2021/01/20 09:50:13;;;;;;;4.30;2.45;;;9.60;1.00;;;;;;5074682;28;20181;-60
2021/01/20 09:52:40;;;;;;;4.47;2.80;;;9.50;1.00;;;;;;5071036;28;20618;-62
2021/01/20 09:55:07;;;;;;;3.97;2.80;;;9.70;1.00;;;;;;5073897;28;20189;-64
2021/01/20 09:57:32;;;;;;;3.40;2.67;;;9.60;1.00;;;;;;5073976;28;20617;-64
2021/01/20 09:59:58;;;;;;;3.10;2.33;;;9.70;1.00;;;;;;5073985;28;20184;-65
2021/01/20 10:02:24;;;;;;;2.90;2.60;;;9.80;99.90;;;;;;5073343;28;20504;-64
2021/01/20 10:04:49;;;;;;;3.40;2.30;;;9.80;99.90;;;;;;5073454;28;20192;-66
2021/01/20 10:07:16;;;;;;;3.87;2.93;;;9.80;76.30;;;;;;5073611;28;20552;-64
2021/01/20 10:09:42;;;;;;;4.47;3.00;;;9.80;1.00;;;;;;5056997;28;20208;-66
2021/01/20 10:12:12;;;;;;;6.00;2.77;;;9.70;99.90;;;;;;5073649;28;20612;-64
2021/01/20 10:14:38;;;;;;;4.90;3.10;;;9.80;12.60;;;;;;5073239;28;20423;-63
2021/01/20 10:17:04;;;;;;;3.25;2.40;;;9.70;1.00;;;;;;5073184;28;20188;-64
2021/01/20 10:19:30;;;;;;;4.25;2.83;;;9.70;47.90;;;;;;5073661;28;20227;-62
2021/01/20 10:21:56;;;;;;;4.27;2.97;;;9.80;1.00;;;;;;5073486;28;20184;-63
2021/01/20 10:24:22;;;;;;;3.33;2.90;;;9.80;1.00;;;;;;5073858;28;20298;-65
2021/01/20 10:26:47;;;;;;;3.87;3.30;;;9.90;1.00;;;;;;5072394;28;20237;-64
2021/01/20 10:29:13;;;;;;;4.90;3.20;;;9.90;1.00;;;;;;5073787;28;20434;-65
2021/01/20 10:31:39;;;;;;;2.87;2.40;;;10.00;1.00;;;;;;5073512;28;20201;-64
2021/01/20 10:34:07;;;;;;;2.88;2.20;;;10.10;1.00;;;;;;5073629;28;20188;-64
2021/01/20 10:36:33;;;;;;;4.28;2.83;;;10.10;1.00;;;;;;5074055;28;20220;-67
2021/01/20 10:38:59;;;;;;;3.22;2.85;;;10.10;1.00;;;;;;5073523;28;20193;-67
2021/01/20 10:41:26;;;;;;;5.53;2.93;;;10.20;1.00;;;;;;5073525;28;20492;-66
2021/01/20 10:43:53;;;;;;;4.72;3.30;;;10.40;1.00;;;;;;5073271;28;20887;-68
2021/01/20 10:46:25;;;;;;;6.53;2.63;;;10.50;1.00;;;;;;5073710;28;20610;-69
2021/01/20 10:48:51;;;;;;;4.55;3.13;;;10.60;99.90;;;;;;5076044;28;20213;-64
2021/01/20 10:51:16;;;;;;;3.25;2.75;;;10.50;99.90;;;;;;5079118;28;20241;-68
2021/01/20 10:53:42;;;;;;;4.63;2.73;;;10.40;99.90;;;;;;5077697;28;20208;-64
2021/01/20 10:56:08;;;;;;;3.13;2.17;;;10.60;1.00;;;;;;5081522;28;20191;-64
2021/01/20 10:58:34;;;;;;;3.05;2.55;;;10.70;1.00;;;;;;5088236;28;20569;-65
2021/01/20 11:01:01;;;;;;;3.55;2.45;;;10.70;1.00;;;;;;5084284;28;20195;-65
2021/01/20 11:03:27;;;;;;;4.30;2.60;;;10.80;1.00;;;;;;5079459;28;20585;-63
2021/01/20 11:05:53;;;;;;;2.77;2.10;;;10.80;99.90;;;;;;5077561;28;20268;-64
2021/01/20 11:08:18;;;;;;;4.10;2.77;;;10.70;1.00;;;;;;5076935;28;20201;-63
2021/01/20 11:10:44;;;;;;;2.53;2.33;;;10.80;99.90;;;;;;5077969;28;20474;-64
2021/01/20 11:13:10;;;;;;;6.70;4.60;;;10.90;99.90;;;;;;5078250;28;20313;-63
2021/01/20 11:15:50;;;;;;;63.57;32.13;;;11.30;99.90;;;;;;5074990;28;20184;-64
2021/01/20 11:18:17;;;;;;;3.55;2.50;;;11.40;20.90;;;;;;5078068;28;20196;-63
2021/01/20 11:20:44;;;;;;;2.97;2.35;;;11.50;1.00;;;;;;5078094;28;20171;-63
2021/01/20 11:23:11;;;;;;;4.15;3.15;;;11.30;36.80;;;;;;5077249;28;20221;-63
2021/01/20 11:25:48;;;;;;;2.83;2.00;;;11.30;87.50;;;;;;5076848;28;20247;-67
2021/01/20 11:28:14;;;;;;;4.93;2.75;;;11.30;80.50;;;;;;5075680;28;20183;-67
2021/01/20 11:30:41;;;;;;;2.78;1.90;;;11.40;75.30;;;;;;5074860;28;20211;-68
2021/01/20 11:33:08;;;;;;;3.90;2.83;;;11.50;58.80;;;;;;5075011;28;20182;-63
2021/01/20 11:35:34;;;;;;;3.42;2.30;;;11.70;1.00;;;;;;5077732;28;20253;-62
2021/01/20 11:38:00;;;;;;;3.80;2.33;;;11.50;1.00;;;;;;5071591;28;20269;-62
2021/01/20 11:40:26;;;;;;;4.17;2.30;;;11.50;99.90;;;;;;5069161;28;20183;-63
2021/01/20 11:42:57;;;;;;;3.67;2.83;;;11.50;99.90;;;;;;5069338;28;20183;-62
2021/01/20 11:45:36;;;;;;;2.95;2.40;;;11.40;99.90;;;;;;5067093;28;20266;-62
2021/01/20 11:48:03;;;;;;;3.20;2.03;;;11.40;99.90;;;;;;5066793;28;20271;-62
2021/01/20 11:50:29;;;;;;;2.03;1.88;;;11.30;99.90;;;;;;5067060;28;20559;-62
2021/01/20 11:52:55;;;;;;;3.13;2.30;;;11.20;99.90;;;;;;5063902;28;20228;-62
2021/01/20 11:55:21;;;;;;;3.97;2.10;;;11.30;99.90;;;;;;5064264;28;20177;-62
2021/01/20 11:57:47;;;;;;;3.67;2.80;;;11.30;99.90;;;;;;5064254;28;20180;-62
2021/01/20 12:00:14;;;;;;;4.40;2.90;;;11.20;99.90;;;;;;5065495;28;20226;-62
2021/01/20 12:02:40;;;;;;;3.22;1.90;;;11.20;99.90;;;;;;5072719;28;20235;-62
2021/01/20 12:05:08;;;;;;;3.65;2.40;;;11.40;99.90;;;;;;5074942;28;20510;-64
2021/01/20 12:07:35;;;;;;;4.43;2.72;;;11.40;99.90;;;;;;5074249;28;20207;-62
2021/01/20 12:10:00;;;;;;;2.58;2.05;;;11.40;99.90;;;;;;5074470;28;20520;-63
2021/01/20 12:12:26;;;;;;;2.97;2.30;;;11.40;99.90;;;;;;5081435;28;20293;-64
2021/01/20 12:14:51;;;;;;;2.50;1.60;;;11.40;99.90;;;;;;5067216;28;20171;-65
2021/01/20 12:17:17;;;;;;;2.67;1.87;;;11.30;1.00;;;;;;5066257;28;20187;-63
2021/01/20 12:19:43;;;;;;;2.90;2.07;;;11.40;1.00;;;;;;5075433;28;20642;-62
2021/01/20 12:22:08;;;;;;;3.83;1.97;;;11.30;1.00;;;;;;5070347;28;20185;-62
2021/01/20 12:24:34;;;;;;;3.33;2.37;;;11.40;1.00;;;;;;5074513;28;20499;-63
2021/01/20 12:27:00;;;;;;;3.03;2.00;;;11.40;1.00;;;;;;5074061;28;20686;-64
2021/01/20 12:29:26;;;;;;;3.23;2.57;;;11.30;1.00;;;;;;5073792;28;20174;-64
2021/01/20 12:31:51;;;;;;;3.40;3.00;;;11.30;1.00;;;;;;5073485;28;20466;-63
2021/01/20 12:34:18;;;;;;;4.20;2.60;;;11.30;1.00;;;;;;5074352;28;20679;-62
2021/01/20 12:36:47;;;;;;;4.97;2.53;;;11.10;1.00;;;;;;5074751;28;20192;-65
2021/01/20 12:39:14;;;;;;;3.60;2.28;;;11.00;85.40;;;;;;5074937;28;20182;-64
2021/01/20 12:41:40;;;;;;;3.90;2.28;;;11.00;99.90;;;;;;5075042;28;20235;-63
2021/01/20 12:44:06;;;;;;;13.93;7.72;;;10.90;99.90;;;;;;5074456;28;20527;-64
2021/01/20 12:46:32;;;;;;;3.77;2.73;;;10.90;99.90;;;;;;5074009;28;20189;-64
2021/01/20 12:48:58;;;;;;;2.90;2.30;;;10.90;99.90;;;;;;5074266;28;20770;-67
2021/01/20 12:51:23;;;;;;;2.10;1.90;;;10.90;99.90;;;;;;5073045;28;20555;-67
2021/01/20 12:53:49;;;;;;;2.20;1.70;;;10.90;99.90;;;;;;5074295;28;20181;-66
2021/01/20 12:56:15;;;;;;;2.73;2.30;;;11.10;99.90;;;;;;5073569;28;20326;-62
2021/01/20 12:58:40;;;;;;;2.80;2.33;;;11.30;23.40;;;;;;5074778;28;20188;-67
2021/01/20 13:01:06;;;;;;;2.10;1.80;;;11.20;1.00;;;;;;5074238;28;20203;-66